Narowal Weather



Narowal's Current Weather

Temprature 19o mist

mist

Rain: 0 %

Min Temprature19o
Max Temprature19o
Humidity88
Wind Speed1.04 m/h
Sun Rise05:25:16
Sun Set18:33:01
Current Time: 21-Apr-2019 06:12:11
Lat/Lon: 32.1, 74.87




Narowal's Geo Location



Narowal's Weather Forecast

Time Overall Temp Min Temp Max Temp Humidity Wind Speed Rain
21-Apr-2019 (Sun)
08:00:00 clear sky 24.690 24.690 27.899 41 1.45 m/h 0 %
11:00:00 clear sky 31.540 31.540 33.950 29 0.42 m/h 0 %
14:00:00 clear sky 33.440 33.440 35.050 23 2.31 m/h 0 %
17:00:00 clear sky 33.950 33.950 34.750 23 2.14 m/h 0 %
20:00:00 clear sky 29.550 29.550 29.550 31 1.98 m/h 0 %
23:00:00 clear sky 27.590 27.590 27.590 35 2.5 m/h 0 %
22-Apr-2019 (Mon)
02:00:00 clear sky 25.170 25.170 25.170 40 1.83 m/h 0 %
05:00:00 clear sky 23.974 23.974 23.974 41 1.29 m/h 0 %
08:00:00 clear sky 28.856 28.856 28.856 33 1.36 m/h 0 %
11:00:00 clear sky 34.920 34.920 34.920 22 1.76 m/h 0 %
14:00:00 clear sky 37.515 37.515 37.515 17 3.86 m/h 0 %
17:00:00 clear sky 36.631 36.631 36.631 19 3.92 m/h 0 %
20:00:00 clear sky 30.650 30.650 30.650 26 2.4 m/h 0 %
23:00:00 clear sky 28.296 28.296 28.296 30 3.25 m/h 0 %
23-Apr-2019 (Tue)
02:00:00 clear sky 26.477 26.477 26.477 32 3.11 m/h 0 %
05:00:00 clear sky 24.486 24.486 24.486 33 2.72 m/h 0 %
08:00:00 clear sky 29.477 29.477 29.477 26 0.86 m/h 0 %
11:00:00 clear sky 36.450 36.450 36.450 16 1.88 m/h 0 %
14:00:00 scattered clouds 39.750 39.750 39.750 13 3.72 m/h 0 %
17:00:00 few clouds 38.650 38.650 38.650 15 3.7 m/h 0 %
20:00:00 clear sky 31.828 31.828 31.828 23 2.78 m/h 0 %
23:00:00 clear sky 29.450 29.450 29.450 25 3.57 m/h 0 %
24-Apr-2019 (Wed)
02:00:00 scattered clouds 27.182 27.182 27.182 23 3.07 m/h 0 %
05:00:00 broken clouds 26.644 26.644 26.644 22 2.1 m/h 0 %
08:00:00 overcast clouds 31.050 31.050 31.050 20 2.2 m/h 0 %
11:00:00 broken clouds 38.609 38.609 38.609 11 3.95 m/h 0 %
14:00:00 clear sky 41.450 41.450 41.450 10 2.33 m/h 0 %
17:00:00 scattered clouds 38.250 38.250 38.250 13 1.85 m/h 0 %
20:00:00 light rain 34.555 34.555 34.555 16 4.6 m/h 19 %
23:00:00 broken clouds 31.345 31.345 31.345 19 5.18 m/h 0 %
25-Apr-2019 (Thu)
02:00:00 few clouds 27.950 27.950 27.950 21 1.04 m/h 0 %
05:00:00 scattered clouds 26.632 26.632 26.632 27 3.6 m/h 0 %
08:00:00 overcast clouds 31.720 31.720 31.720 25 3.03 m/h 0 %
11:00:00 overcast clouds 35.090 35.090 35.090 18 3.97 m/h 0 %
14:00:00 overcast clouds 38.950 38.950 38.950 13 3.85 m/h 0 %
17:00:00 scattered clouds 38.311 38.311 38.311 13 0.24 m/h 0 %
20:00:00 clear sky 31.425 31.425 31.425 18 0.56 m/h 0 %
23:00:00 scattered clouds 28.843 28.843 28.843 21 2.72 m/h 0 %
26-Apr-2019 (Fri)
02:00:00 overcast clouds 27.332 27.332 27.332 23 2.59 m/h 0 %
05:00:00 overcast clouds 26.046 26.046 26.046 24 2.68 m/h 0 %

Famous Cities (60)